Tiempo atmosférico en la estación meteorológica de Alcañiz, Teruel (320 m.)

Fecha
DESCASC
Temp. máxima en grados centígrados (hora)
DESCASC
Temp. mínima en grados centígrados (hora)
DESCASC
Temp. media en grados centígrados
DESCASC
Racha de viento máxima en m/sg (hora)
DESCASC
Velocidad máxima media en intervalos de 10 minutos(hora)
DESCASC
Precipitaciones diarias en mm
DESCASC
Precipitaciones de 00:00 a 06:00 en mm
DESCASC
Precipitaciones de 06:00 a 12:00 en mm
DESCASC
Precipitaciones de 12:00 a 18:00 en mm
DESCASC
Precipitaciones de 18:00 a 24:00 en mm
DESCASC
24-09-2017 29.4 (17:10) 10.5 (07:50) 19.9 5 (16:20) 2.5 (14:20) 0 0 0 0 0
23-09-2017 26.2 (18:00) 12.3 (05:40) 19.3 5 (13:30) 3.33 (13:30) 0.1 0 0.1 0 0
22-09-2017 20.8 (00:20) 15 (23:00) 17.9 5.28 (13:30) 3.06 (13:20) 0.2 0 0.2 0 0
21-09-2017 27.4 (17:50) 7.2 (00:00) 17.3 6.39 (14:20) 3.89 (19:00) 0 0 0 0 0
20-09-2017 24.6 (17:30) 5.7 (00:00) 15.2 6.67 (01:10) 3.61 (01:10) 0 0 0 0 0
19-09-2017 22.7 (17:00) 12.5 (00:00) 17.6 11.67 (14:30) 6.11 (16:20) 0 0 0 0 0
18-09-2017 23.1 (16:40) 9.2 (00:00) 16.2 8.33 (18:30) 4.72 (18:00) 0 0 0 0 0
17-09-2017 22 (16:30) 5.9 (00:00) 14 6.11 (15:50) 3.06 (13:40) 0 0 0 0 0
16-09-2017 19.5 (18:10) 6.1 (00:00) 12.8 8.06 (14:10) 4.17 (12:10) 0 0 0 0 0
15-09-2017 16.4 (00:00) 9 (00:00) 12.7 7.78 (12:10) 4.17 (12:10) 8.9 0 0 8.9 0
14-09-2017 25.9 (14:50) 13.1 (00:00) 19.5 12.5 (14:00) 6.67 (15:10) 0 0 0 0 0
13-09-2017 29.8 (17:50) 11.4 (00:00) 20.6 7.78 (16:40) 4.17 (20:00) 0 0 0 0 0
12-09-2017 24.2 (17:10) 14.4 (00:00) 19.3 12.5 (15:40) 6.39 (15:40) 0 0 0 0 0
11-09-2017 27.9 (17:00) 11.3 (00:00) 19.6 8.89 (11:00) 5 (12:00) 0 0 0 0 0
10-09-2017 21.9 (18:00) 12.4 (00:00) 17.1 17.22 (15:10) 9.17 (15:20) 0 0 0 0 0
09-09-2017 20.3 (00:10) 12.6 (00:00) 16.4 12.22 (13:30) 6.94 (13:10) 0 0 0 0 0
08-09-2017 27.5 (16:30) 10 (00:00) 18.8 8.06 (00:20) 4.17 (00:10) 0 0 0 0 0
07-09-2017 25.5 (17:10) 11.9 (00:00) 18.7 10.28 (10:50) 5 (09:40) 0 0 0 0 0
06-09-2017 28.7 (17:40) 16.4 (00:00) 22.6 10.56 (16:50) 5.83 (20:00) 0 0 0 0 0
05-09-2017 31.5 (17:50) 15.3 (00:00) 23.4 5.83 (14:50) 2.78 (19:40) 0 0 0 0 0
04-09-2017 28.8 (18:30) 13.5 (00:00) 21.1 6.67 (13:10) 3.06 (10:20) 0 0 0 0 0
03-09-2017 28.2 (18:40) 11.6 (00:00) 19.9 5.83 (16:40) 2.78 (16:40) 0.2 0 0 0 0.2
02-09-2017 24.6 (17:30) 13.8 (00:00) 19.2 13.06 (04:50) 7.5 (04:50) 0 0 0 0 0
01-09-2017 24.6 (17:40) 14.8 (00:00) 19.7 10.56 (18:30) 5.28 (18:40) 0 0 0 0 0
31-08-2017 25.1 (17:40) 16.1 (00:00) 20.6 8.06 (13:30) 3.89 (10:10) 0 0 0 0 0
30-08-2017 27.9 (15:00) 18 (00:00) 22.9 8.61 (04:10) 4.17 (04:10) 1.6 0.4 0 0.3 0.9
29-08-2017 24.6 (16:30) 16.3 (00:00) 20.4 14.72 (18:20) 6.67 (18:20) 0.1 0 0 0 0.1
28-08-2017 29 (14:50) 16.5 (00:00) 22.8 9.72 (23:20) 5.56 (23:10) 5 0 0 3 2
27-08-2017 32.3 (14:50) 18.8 (00:00) 25.5 15.28 (16:30) 7.5 (16:40) 9.2 0.1 0 8.1 1
26-08-2017 34.3 (15:40) 17.5 (00:00) 25.9 17.5 (19:00) 8.61 (19:00) 14.5 0 0 0.3 14.2

Gráficas

Temp. máximas Temp. mínimas Temp. medias Precipitaciones Rachas de viento máximas Velocidades máximas media en intervalos de 10 minutos

Datos horarios

Fecha y hora oficial Temperatura (ºC) Velocidad del viento (km/h) Dirección del viento Racha (km/h) Dirección de racha Precipitación (mm) Presión (hPa) Tendencia (hPa) Humedad (%)
2017-09-24 23:00:00 18.3 3 Oeste 7 Oeste 0 -- -- 57
2017-09-24 22:00:00 19.5 4 Oeste 8 Sur 0 -- -- 52
2017-09-24 21:00:00 21.4 2 Nordeste 4 Sur 0 -- -- 46
2017-09-24 20:00:00 23.7 0 Calma 11 Sudeste 0 -- -- 42
2017-09-24 19:00:00 27.6 6 Nordeste 15 Este 0 -- -- 32
2017-09-24 18:00:00 28.8 7 Este 12 Norte 0 -- -- 31
2017-09-24 17:00:00 28.8 6 Norte 18 Norte 0 -- -- 31
2017-09-24 16:00:00 28.2 4 Nordeste 15 Norte 0 -- -- 33
2017-09-24 15:00:00 27.7 4 Nordeste 17 Este 0 -- -- 37
2017-09-24 14:00:00 26.4 6 Norte 15 Norte 0 -- -- 35
2017-09-24 13:00:00 24.4 4 Norte 13 Norte 0 -- -- 44
2017-09-24 12:00:00 22.1 2 Sudeste 6 Sudoeste 0 -- -- 59
2017-09-24 11:00:00 17.8 0 Calma 9 Sudoeste 0 -- -- 78
2017-09-24 10:00:00 15.2 5 Oeste 9 Sudoeste 0 -- -- 92
2017-09-24 09:00:00 12.5 4 Oeste 6 Oeste 0 -- -- 93
2017-09-24 08:00:00 11.1 0 Calma 8 Oeste 0 -- -- 95
2017-09-24 07:00:00 11.1 4 Sudoeste 8 Oeste 0 -- -- 95
2017-09-24 06:00:00 12.2 0 Calma -- -- 0 -- -- 94
2017-09-24 05:00:00 12.4 0 Calma 0 Calma 0 -- -- 92
2017-09-24 04:00:00 13 0 Calma -- -- 0 -- -- 90
2017-09-24 03:00:00 13.6 0 Calma 5 Oeste 0 -- -- 87
2017-09-24 02:00:00 14.6 0 Calma 6 Este 0 -- -- 82
2017-09-24 01:00:00 15.4 0 Calma -- -- 0 -- -- 79
2017-09-24 00:00:00 15.9 0 Calma -- -- 0 -- -- 73
2017-09-23 23:00:00 17 0 Calma 6 Oeste 0 -- -- 69
2017-09-23 22:00:00 19.1 0 Calma 8 Sur 0 -- -- 61
2017-09-23 21:00:00 21 4 Este 8 Nordeste 0 -- -- 52
2017-09-23 20:00:00 23.7 5 Nordeste 10 Nordeste 0 -- -- 40
2017-09-23 19:00:00 25.4 6 Nordeste 15 Este 0 -- -- 35
2017-09-23 18:00:00 26.2 9 Nordeste 17 Este 0 -- -- 37
2017-09-23 17:00:00 25.8 6 Este 15 Este 0 -- -- 40
2017-09-23 16:00:00 25.2 5 Este 13 Este 0 -- -- 46
2017-09-23 15:00:00 23.2 4 Nordeste 16 Nordeste 0 -- -- 52
2017-09-23 14:00:00 22.5 9 Este 18 Este 0 -- -- 55
2017-09-23 13:00:00 21.3 9 Este 17 Nordeste 0 -- -- 59
2017-09-23 12:00:00 19.8 5 Este 11 Este 0 -- -- 63
2017-09-23 11:00:00 17.6 5 Este 10 Este 0 -- -- 74
2017-09-23 10:00:00 15 0 Calma 9 Sudoeste 0 -- -- 92
2017-09-23 09:00:00 14.1 5 Sudoeste 10 Sur 0.1 -- -- 99
2017-09-23 08:00:00 14 4 Sur 7 Sur 0 -- -- 99
2017-09-23 07:00:00 14 0 Calma 6 Sudoeste 0 -- -- 99
2017-09-23 06:00:00 13.4 2 Sudoeste 5 Sudoeste 0 -- -- 99
2017-09-23 05:00:00 13 0 Calma 3 Sur 0 -- -- 99
2017-09-23 04:00:00 13.6 2 Sur 8 Noroeste 0 -- -- 98
2017-09-23 03:00:00 14.4 4 Sudoeste 9 Norte 0 -- -- 97
2017-09-23 02:00:00 15 2 Nordeste 7 Noroeste 0 -- -- 96
2017-09-23 01:00:00 15.3 0 Calma 9 Este 0 -- -- 96
2017-09-23 00:00:00 15.3 0 Calma 4 Oeste 0 -- -- 95
2017-09-22 23:00:00 15.1 0 Calma 8 Oeste 0 -- -- 95
2017-09-22 22:00:00 15.8 0 Calma 6 Norte 0 -- -- 92
2017-09-22 21:00:00 16.2 3 Norte 6 Sudeste 0 -- -- 90
2017-09-22 20:00:00 17.1 2 Nordeste 6 Nordeste 0 -- -- 84
2017-09-22 19:00:00 19 2 Este 13 Este 0 -- -- 79
2017-09-22 18:00:00 18.6 8 Este 15 Este 0 -- -- 81
2017-09-22 17:00:00 18.2 8 Norte 14 Norte 0 -- -- 82
2017-09-22 16:00:00 18.6 9 Norte 19 Norte 0 -- -- 80
2017-09-22 15:00:00 19.1 5 Noroeste 15 Oeste 0 -- -- 75
2017-09-22 14:00:00 18.6 8 Oeste 19 Oeste 0 -- -- 78
2017-09-22 13:00:00 18.6 8 Oeste 17 Oeste 0 -- -- 79
2017-09-22 12:00:00 16.6 8 Este 12 Este 0.2 -- -- 86
2017-09-22 11:00:00 17.6 0 Calma 16 Oeste 0 -- -- 72
2017-09-22 10:00:00 17 9 Oeste 15 Oeste 0 -- -- 75
2017-09-22 09:00:00 16.2 0 Calma 3 Sudoeste 0 -- -- 80
2017-09-22 08:00:00 15.5 0 Calma 8 Sudoeste 0 -- -- 76
2017-09-22 07:00:00 17 5 Oeste 12 Sur 0 -- -- 69
2017-09-22 06:00:00 17.4 6 Oeste 18 Oeste 0 -- -- 67
2017-09-22 05:00:00 17.4 5 Sudoeste 16 Oeste 0 -- -- 72
2017-09-22 04:00:00 16.9 5 Sudoeste 12 Sudoeste 0 -- -- 86
2017-09-22 03:00:00 17.4 7 Oeste 15 Oeste 0 -- -- 94
2017-09-22 02:00:00 18.4 2 Nordeste 11 Este 0 -- -- 85
2017-09-22 01:00:00 19.5 6 Este 10 Sudeste 0 -- -- 78
2017-09-22 00:00:00 20.3 5 Sudoeste 15 Oeste 0 -- -- 75
2017-09-21 23:00:00 -- 0 Calma 5 Sudeste 0 -- -- --
2017-09-21 22:00:00 21.5 0 Calma 7 Este 0 -- -- 68
2017-09-21 21:00:00 23 3 Sudeste 14 Nordeste 0 -- -- 63
2017-09-21 20:00:00 24.7 11 Nordeste 21 Este 0 -- -- 57
2017-09-21 19:00:00 26.3 14 Este 22 Este 0 -- -- 49
2017-09-21 18:00:00 27.3 13 Nordeste 19 Este 0 -- -- 44
2017-09-21 17:00:00 27 10 Nordeste 19 Norte 0 -- -- 43
2017-09-21 16:00:00 25.8 11 Nordeste 20 Este 0 -- -- 47
2017-09-21 15:00:00 25 6 Nordeste 23 Nordeste 0 -- -- 46
2017-09-21 14:00:00 23.1 6 Nordeste 17 Este 0 -- -- 51
2017-09-21 13:00:00 20.9 8 Nordeste 15 Este 0 -- -- 58
2017-09-21 12:00:00 19.4 4 Nordeste 10 Este 0 -- -- 58
2017-09-21 11:00:00 16.4 0 Calma 6 Noroeste 0 -- -- 67
2017-09-21 10:00:00 13.4 0 Calma 5 Sudoeste 0 -- -- 78
2017-09-21 09:00:00 9.4 4 Sudoeste 6 Oeste 0 -- -- 88
2017-09-21 08:00:00 7.6 0 Calma -- -- 0 -- -- 91
2017-09-21 07:00:00 8.1 0 Calma -- -- 0 -- -- 94
2017-09-21 06:00:00 8.6 0 Calma -- -- 0 -- -- 89
2017-09-21 05:00:00 8.7 0 Calma -- -- 0 -- -- 82
2017-09-21 04:00:00 9.3 0 Calma -- -- 0 -- -- 76
2017-09-21 03:00:00 9.4 0 Calma 4 Sudoeste 0 -- -- 73
2017-09-21 02:00:00 10.6 0 Calma 3 Noroeste 0 -- -- 64
2017-09-21 01:00:00 10.9 0 Calma -- -- 0 -- -- 61
2017-09-21 00:00:00 11.9 0 Calma 2 Sur 0 -- -- 55
2017-09-20 23:00:00 12.4 0 Calma 5 Noroeste 0 -- -- 52
2017-09-20 22:00:00 14.7 0 Calma 7 Sudoeste 0 -- -- 45
2017-09-20 21:00:00 16 3 Sudeste 7 Sudeste 0 -- -- 35
2017-09-20 20:00:00 19.7 0 Calma 9 Este 0 -- -- 32
2017-09-20 19:00:00 23.2 8 Este 14 Este 0 -- -- 24
2017-09-20 18:00:00 23.9 6 Norte 17 Norte 0 -- -- 24
2017-09-20 17:00:00 23.9 6 Norte 17 Norte 0 -- -- 26
2017-09-20 16:00:00 23.6 5 Nordeste 18 Norte 0 -- -- 27
2017-09-20 15:00:00 23.4 3 Oeste 14 Noroeste 0 -- -- 28
2017-09-20 14:00:00 21.1 4 Noroeste 18 Noroeste 0 -- -- 30
2017-09-20 13:00:00 20.1 7 Oeste 21 Oeste 0 -- -- 38
2017-09-20 12:00:00 18.2 10 Oeste 20 Sudoeste 0 -- -- 44
2017-09-20 11:00:00 16 3 Sudoeste 8 Sudoeste 0 -- -- 57
2017-09-20 10:00:00 12.1 4 Sudoeste 9 Sudoeste 0 -- -- 71
2017-09-20 09:00:00 8.4 0 Calma 5 Sur 0 -- -- 85
2017-09-20 08:00:00 5.8 0 Calma 9 Sur 0 -- -- 89
2017-09-20 07:00:00 5.9 0 Calma 6 Oeste 0 -- -- 87
2017-09-20 06:00:00 7.8 0 Calma 5 Sudoeste 0 -- -- 82
2017-09-20 05:00:00 8.3 0 Calma 6 Oeste 0 -- -- 81
2017-09-20 04:00:00 10.2 3 Sur 5 Norte 0 -- -- 75
2017-09-20 03:00:00 11.1 0 Calma 14 Oeste 0 -- -- 68
2017-09-20 02:00:00 13.1 6 Oeste 24 Sudoeste 0 -- -- 63
2017-09-20 01:00:00 14 8 Oeste 19 Oeste 0 -- -- 62
2017-09-20 00:00:00 14.2 9 Oeste 19 Sudoeste 0 -- -- 60
2017-09-19 23:00:00 15.2 8 Sudoeste 13 Sudoeste 0 -- -- 58
2017-09-19 22:00:00 15.8 6 Oeste 12 Oeste 0 -- -- 53
2017-09-19 21:00:00 16.6 4 Sudoeste 16 Oeste 0 -- -- 49
2017-09-19 20:00:00 19.1 10 Oeste 27 Noroeste 0 -- -- 43
2017-09-19 19:00:00 20.4 17 Oeste 36 Noroeste 0 -- -- 39
2017-09-19 18:00:00 21.2 22 Oeste 42 Noroeste 0 -- -- 37
2017-09-19 17:00:00 21.9 17 Noroeste 41 Oeste 0 -- -- 35
2017-09-19 16:00:00 21.5 19 Oeste 36 Noroeste 0 -- -- 36
2017-09-19 15:00:00 21.9 18 Oeste 42 Oeste 0 -- -- 38
2017-09-19 14:00:00 20.3 20 Oeste 38 Oeste 0 -- -- 43
2017-09-19 13:00:00 18.8 19 Oeste 37 Oeste 0 -- -- 50
2017-09-19 12:00:00 17.9 18 Oeste 39 Noroeste 0 -- -- 56
2017-09-19 11:00:00 16.7 17 Oeste 38 Oeste 0 -- -- 60
2017-09-19 10:00:00 15.2 19 Oeste 34 Oeste 0 -- -- 65
2017-09-19 09:00:00 14.1 14 Oeste 27 Oeste 0 -- -- 77
2017-09-19 08:00:00 13 13 Oeste 27 Oeste 0 -- -- 81
2017-09-19 07:00:00 13.2 8 Oeste 15 Oeste 0 -- -- 83
2017-09-19 06:00:00 12.8 5 Oeste 14 Sudoeste 0 -- -- 87
2017-09-19 05:00:00 13.7 8 Oeste 16 Sudoeste 0 -- -- 84
2017-09-19 04:00:00 13.7 6 Sudoeste 18 Oeste 0 -- -- 82
2017-09-19 03:00:00 15 11 Oeste 25 Oeste 0 -- -- 76
2017-09-19 02:00:00 15.6 6 Oeste 18 Sudoeste 0 -- -- 72
2017-09-19 01:00:00 16 9 Oeste 24 Oeste 0 -- -- 70
2017-09-19 00:00:00 16.4 9 Oeste 23 Oeste 0 -- -- 68
2017-09-18 23:00:00 15.5 6 Oeste 12 Oeste 0 -- -- 69
2017-09-18 22:00:00 16.9 5 Sudoeste 17 Oeste 0 -- -- 62
2017-09-18 21:00:00 18.2 8 Noroeste 21 Noroeste 0 -- -- 57
2017-09-18 20:00:00 19.4 12 Noroeste 28 Noroeste 0 -- -- 52
2017-09-18 19:00:00 20.9 16 Noroeste 30 Noroeste 0 -- -- 48
2017-09-18 18:00:00 22.1 17 Noroeste 30 Noroeste 0 -- -- 47
2017-09-18 17:00:00 22.6 10 Noroeste 29 Noroeste 0 -- -- 44
2017-09-18 16:00:00 21.9 13 Noroeste 29 Noroeste 0 -- -- 44
2017-09-18 15:00:00 21.2 13 Noroeste 27 Noroeste 0 -- -- 45
2017-09-18 14:00:00 20.5 8 Noroeste 19 Norte 0 -- -- 48
2017-09-18 13:00:00 18.7 6 Norte 18 Norte 0 -- -- 54
2017-09-18 12:00:00 16.7 8 Oeste 17 Oeste 0 -- -- 61
2017-09-18 11:00:00 14.8 5 Sudoeste 9 Sudoeste 0 -- -- 70
2017-09-18 10:00:00 13.4 0 Calma 6 Sur 0 -- -- 77
2017-09-18 09:00:00 11.4 0 Calma 4 Oeste 0 -- -- 84
2017-09-18 08:00:00 10.6 0 Calma 4 Oeste 0 -- -- 86
2017-09-18 07:00:00 10.6 2 Sudoeste 5 Sudoeste 0 -- -- 84
2017-09-18 06:00:00 10.4 0 Calma 5 Sudoeste 0 -- -- 87
2017-09-18 05:00:00 9.9 3 Oeste 8 Oeste 0 -- -- 87
2017-09-18 04:00:00 10.9 0 Calma 0 Calma 0 -- -- 80
2017-09-18 03:00:00 11.5 2 Oeste 7 Sudoeste 0 -- -- 75
2017-09-18 02:00:00 12.6 0 Calma 8 Oeste 0 -- -- 73
2017-09-18 01:00:00 12.4 0 Calma 7 Oeste 0 -- -- 74
2017-09-18 00:00:00 12.5 2 Oeste 6 Oeste 0 -- -- 75
2017-09-17 23:00:00 13.5 0 Calma -- -- 0 -- -- 71
2017-09-17 22:00:00 14.4 0 Calma -- -- 0 -- -- 63
2017-09-17 21:00:00 15.3 0 Calma 3 Este 0 -- -- 55
2017-09-17 20:00:00 18 0 Calma 13 Este 0 -- -- 44
2017-09-17 19:00:00 20.5 6 Nordeste 13 Nordeste 0 -- -- 37
2017-09-17 18:00:00 20.9 6 Nordeste 17 Nordeste 0 -- -- 37
2017-09-17 17:00:00 21 9 Nordeste 20 Nordeste 0 -- -- 36
2017-09-17 16:00:00 21 9 Norte 52 Nordeste 0 -- -- 37
2017-09-17 15:00:00 21.6 9 Nordeste 19 Este 0 -- -- 40
2017-09-17 14:00:00 20.8 10 Este 20 Nordeste 0 -- -- 41
2017-09-17 13:00:00 18.9 5 Nordeste 12 Nordeste 0 -- -- 44
2017-09-17 12:00:00 16.6 0 Calma 7 Sur 0 -- -- 49
2017-09-17 11:00:00 14.5 2 Sur 9 Sudoeste 0 -- -- 59
2017-09-17 10:00:00 11.6 0 Calma 7 Sur 0 -- -- 73
2017-09-17 09:00:00 8.6 4 Sudoeste 11 Sur 0 -- -- 83
2017-09-17 08:00:00 6.6 0 Calma 6 Sudoeste 0 -- -- 89
2017-09-17 07:00:00 7.3 3 Sudoeste 10 Sudoeste 0 -- -- 87
2017-09-17 06:00:00 7.6 5 Sur 10 Sur 0 -- -- 85
2017-09-17 05:00:00 7.8 0 Calma 9 Sudoeste 0 -- -- 85
2017-09-17 04:00:00 8.1 4 Sudoeste 7 Sudoeste 0 -- -- 85
2017-09-17 03:00:00 9.1 0 Calma 8 Sudoeste 0 -- -- 80
2017-09-17 02:00:00 9.7 5 Sudoeste 8 Sur 0 -- -- 80
2017-09-17 01:00:00 9.6 0 Calma 10 Sudoeste 0 -- -- 78
2017-09-17 00:00:00 11.1 5 Sudoeste 10 Sudoeste 0 -- -- 71
2017-09-16 23:00:00 11.7 5 Sur 13 Oeste 0 -- -- 66
2017-09-16 22:00:00 14.1 8 Oeste 21 Noroeste 0 -- -- 53
2017-09-16 21:00:00 15.5 11 Noroeste 23 Noroeste 0 -- -- 46
2017-09-16 20:00:00 16.6 6 Noroeste 23 Noroeste 0 -- -- 44
2017-09-16 19:00:00 18.6 9 Noroeste 25 Noroeste 0 -- -- 41
2017-09-16 18:00:00 18.9 10 Noroeste 27 Noroeste 0 -- -- 40
2017-09-16 17:00:00 18.5 9 Noroeste 23 Noroeste 0 -- -- 41
2017-09-16 16:00:00 19.1 9 Noroeste 27 Noroeste 0 -- -- 42
2017-09-16 15:00:00 17.4 14 Noroeste 29 Oeste 0 -- -- 44
2017-09-16 14:00:00 17.2 10 Noroeste 25 Oeste 0 -- -- 48
2017-09-16 13:00:00 16 14 Oeste 27 Sudoeste 0 -- -- 51
2017-09-16 12:00:00 14.2 13 Noroeste 24 Noroeste 0 -- -- 57
2017-09-16 11:00:00 13.5 12 Oeste 25 Oeste 0 -- -- 63
2017-09-16 10:00:00 12.2 8 Sudoeste 14 Sur 0 -- -- 72
2017-09-16 09:00:00 8.8 2 Sur 8 Sur 0 -- -- 88
2017-09-16 08:00:00 6.2 2 Sudoeste 5 Sur 0 -- -- 93
2017-09-16 07:00:00 7.3 0 Calma 8 Sudoeste 0 -- -- 88
2017-09-16 06:00:00 8.6 3 Sudoeste 21 Sudoeste 0 -- -- 83
2017-09-16 05:00:00 8.3 6 Oeste 12 Oeste 0 -- -- 87
2017-09-16 04:00:00 8.3 0 Calma 13 Sudoeste 0 -- -- 85
2017-09-16 03:00:00 8.9 5 Sudoeste 12 Sudoeste 0 -- -- 84
2017-09-16 02:00:00 9.4 3 Sur 21 Oeste 0 -- -- 83
2017-09-16 01:00:00 11.1 12 Oeste 26 Oeste 0 -- -- 72
2017-09-16 00:00:00 11.8 11 Oeste 26 Oeste 0 -- -- 71
2017-09-15 23:00:00 12.5 10 Oeste 21 Noroeste 0 -- -- 77
2017-09-15 22:00:00 11.6 4 Sur 10 Sur 0 -- -- 87
2017-09-15 21:00:00 11.7 6 Sur 10 Sur 0 -- -- 86
2017-09-15 20:00:00 11.9 5 Sur 12 Sur 0 -- -- 85
2017-09-15 19:00:00 12 6 Sur 14 Sur 0 -- -- 87
2017-09-15 18:00:00 11 4 Sur 15 Sudoeste 0 -- -- 92
2017-09-15 17:00:00 10.1 8 Sur 15 Sur 0.3 -- -- 97
2017-09-15 16:00:00 9.4 6 Sudoeste 22 Oeste 4.8 -- -- 96
2017-09-15 15:00:00 11.2 4 Noroeste 14 Oeste 0.8 -- -- 96
2017-09-15 14:00:00 11.5 6 Noroeste 17 Oeste 1.6 -- -- 93
2017-09-15 13:00:00 11.6 6 Noroeste 28 Oeste 1.4 -- -- 95
2017-09-15 12:00:00 12.2 13 Oeste 24 Oeste 0 -- -- 83
2017-09-15 11:00:00 11.6 12 Oeste 23 Oeste 0 -- -- 83
2017-09-15 10:00:00 12.8 10 Noroeste 25 Oeste 0 -- -- 68
2017-09-15 09:00:00 13.3 10 Oeste 22 Oeste 0 -- -- 66
2017-09-15 08:00:00 13.4 11 Oeste 21 Noroeste 0 -- -- 64
2017-09-15 07:00:00 13.6 9 Oeste 19 Noroeste 0 -- -- 61
2017-09-15 06:00:00 13.9 7 Noroeste 23 Oeste 0 -- -- 60
2017-09-15 05:00:00 14.3 10 Oeste 19 Oeste 0 -- -- 57
2017-09-15 04:00:00 13.8 5 Oeste 9 Oeste 0 -- -- 62
2017-09-15 03:00:00 13.1 2 Sur 9 Sudoeste 0 -- -- 64
2017-09-15 02:00:00 13.1 4 Sudoeste 14 Oeste 0 -- -- 57
2017-09-15 01:00:00 14.3 6 Sudoeste 20 Oeste 0 -- -- 52
2017-09-15 00:00:00 16.4 9 Sudoeste 27 Sudoeste 0 -- -- 52
2017-09-14 23:00:00 16.6 14 Oeste 30 Oeste 0 -- -- 52
2017-09-14 22:00:00 17.1 14 Oeste 28 Oeste 0 -- -- 52
2017-09-14 21:00:00 17.6 11 Oeste 28 Oeste 0 -- -- 53
2017-09-14 20:00:00 18.8 15 Oeste 39 Oeste 0 -- -- 49
2017-09-14 19:00:00 20.1 18 Noroeste 35 Noroeste 0 -- -- 47
2017-09-14 18:00:00 21.9 18 Noroeste 36 Noroeste 0 -- -- 46
2017-09-14 17:00:00 23.5 22 Oeste 42 Oeste 0 -- -- 45
2017-09-14 16:00:00 25 22 Noroeste 43 Noroeste 0 -- -- 44
2017-09-14 15:00:00 24.8 22 Oeste 41 Oeste 0 -- -- 48
2017-09-14 14:00:00 24.9 21 Oeste 45 Oeste 0 -- -- 49
2017-09-14 13:00:00 24 17 Oeste 39 Oeste 0 -- -- 52
2017-09-14 12:00:00 22.9 16 Noroeste 33 Oeste 0 -- -- 57
2017-09-14 11:00:00 21.1 13 Oeste 23 Oeste 0 -- -- 69
2017-09-14 10:00:00 18.7 10 Oeste 16 Oeste 0 -- -- 82
2017-09-14 09:00:00 15.9 0 Calma 5 Sudoeste 0 -- -- 90
2017-09-14 08:00:00 13.4 0 Calma 3 Sur 0 -- -- 95
2017-09-14 07:00:00 13.1 0 Calma 6 Sur 0 -- -- 95
2017-09-14 06:00:00 14.1 0 Calma 4 Noroeste 0 -- -- 93
2017-09-14 05:00:00 14.6 0 Calma 4 Norte 0 -- -- 91
2017-09-14 04:00:00 16.1 0 Calma -- -- -- -- -- 86
2017-09-14 03:00:00 17.3 2 Nordeste 5 Noroeste 0 -- -- 83
2017-09-14 02:00:00 18.1 3 Noroeste 8 Oeste 0 -- -- 81
2017-09-14 01:00:00 18.3 0 Calma 4 Noroeste 0 -- -- 78
2017-09-14 00:00:00 20.3 0 Calma 4 Norte 0 -- -- 70
2017-09-13 23:00:00 21.1 0 Calma 8 Este 0 -- -- 63
2017-09-13 22:00:00 22.7 0 Calma 9 Este 0 -- -- 56
2017-09-13 21:00:00 25.1 7 Este 22 Este 0 -- -- 48
2017-09-13 20:00:00 27.3 15 Este 22 Este 0 -- -- 41
2017-09-13 19:00:00 28.6 13 Este 22 Este 0 -- -- 39
2017-09-13 18:00:00 29.6 12 Nordeste 23 Este 0 -- -- 35
2017-09-13 17:00:00 29.2 9 Nordeste 28 Este 0 -- -- 36
2017-09-13 16:00:00 28.5 10 Nordeste 24 Nordeste 0 -- -- 37
2017-09-13 15:00:00 28.4 9 Nordeste 18 Este 0 -- -- 38
2017-09-13 14:00:00 27 4 Norte 14 Este 0 -- -- 40
2017-09-13 13:00:00 26.1 3 Sudeste 10 Sudeste 0 -- -- 44
2017-09-13 12:00:00 23.8 0 Calma 10 Oeste 0 -- -- 49
2017-09-13 11:00:00 21.5 3 Sur 12 Sur 0 -- -- 55
2017-09-13 10:00:00 18.2 9 Sur 15 Sur 0 -- -- 64
2017-09-13 09:00:00 14.6 4 Sur 12 Sudoeste 0 -- -- 75
2017-09-13 08:00:00 12.1 3 Sudoeste 10 Sudoeste 0 -- -- 82
2017-09-13 07:00:00 11.9 5 Sudoeste 10 Sudoeste 0 -- -- 82
2017-09-13 06:00:00 12.2 4 Sudoeste 10 Sudoeste 0 -- -- 80
2017-09-13 05:00:00 12.3 5 Oeste 8 Sudoeste 0 -- -- 79
2017-09-13 04:00:00 12.4 4 Sudoeste 7 Sudoeste 0 -- -- 79
2017-09-13 03:00:00 13.7 4 Sudoeste 7 Sur 0 -- -- 73
2017-09-13 02:00:00 13.5 3 Sudoeste 7 Sudoeste 0 -- -- 73
2017-09-13 01:00:00 14.2 2 Sudoeste 6 Sur 0 -- -- 71
2017-09-13 00:00:00 14.4 0 Calma 8 Sudoeste 0 -- -- 69
2017-09-12 23:00:00 15.4 0 Calma 5 Sudoeste 0 -- -- 67
2017-09-12 22:00:00 16.5 0 Calma 10 Noroeste 0 -- -- 59
2017-09-12 21:00:00 19.8 9 Noroeste 21 Noroeste 0 -- -- 49
2017-09-12 20:00:00 21.8 11 Noroeste 25 Noroeste 0 -- -- 46
2017-09-12 19:00:00 22.8 16 Noroeste 30 Noroeste 0 -- -- 45
2017-09-12 18:00:00 23.7 16 Noroeste 34 Oeste 0 -- -- 45
2017-09-12 17:00:00 23.6 17 Noroeste 40 Noroeste 0 -- -- 45
2017-09-12 16:00:00 22.7 17 Noroeste 45 Noroeste 0 -- -- 47
2017-09-12 15:00:00 21.8 17 Oeste 39 Oeste 0 -- -- 51
2017-09-12 14:00:00 21.4 16 Noroeste 36 Oeste 0 -- -- 53
2017-09-12 13:00:00 19.4 19 Oeste 35 Noroeste 0 -- -- 59
2017-09-12 12:00:00 19.2 17 Oeste 32 Oeste 0 -- -- 62
2017-09-12 11:00:00 17.2 12 Oeste 33 Oeste 0 -- -- 67
2017-09-12 10:00:00 17 12 Oeste 26 Oeste 0 -- -- 70
2017-09-12 09:00:00 15.8 9 Oeste 18 Oeste 0 -- -- 73
2017-09-12 08:00:00 15.2 8 Oeste 22 Oeste 0 -- -- 76
2017-09-12 07:00:00 15.1 12 Oeste 24 Oeste 0 -- -- 76
2017-09-12 06:00:00 15.7 10 Oeste 27 Oeste 0 -- -- 75
2017-09-12 05:00:00 16.2 17 Oeste 29 Oeste 0 -- -- 73
2017-09-12 04:00:00 16.3 12 Oeste 26 Oeste 0 -- -- 74
2017-09-12 03:00:00 16 13 Oeste 23 Oeste 0 -- -- 75
2017-09-12 02:00:00 16.8 9 Oeste 21 Oeste 0 -- -- 71
2017-09-12 01:00:00 17.4 12 Oeste 24 Oeste 0 -- -- 67
2017-09-12 00:00:00 18.5 11 Oeste 23 Oeste 0 -- -- 64
2017-09-11 23:00:00 19.2 10 Oeste 24 Oeste 0 -- -- 60
2017-09-11 22:00:00 21.1 10 Noroeste 19 Noroeste 0 -- -- 57
2017-09-11 21:00:00 22 4 Oeste 16 Noroeste 0 -- -- 55
2017-09-11 20:00:00 23.9 9 Noroeste 22 Norte 0 -- -- 50
2017-09-11 19:00:00 25.3 9 Noroeste 26 Oeste 0 -- -- 48
2017-09-11 18:00:00 26.7 10 Noroeste 30 Noroeste 0 -- -- 46
2017-09-11 17:00:00 26.8 13 Noroeste 32 Noroeste 0 -- -- 45
2017-09-11 16:00:00 26.7 13 Noroeste 31 Noroeste 0 -- -- 45
2017-09-11 15:00:00 26.8 13 Noroeste 30 Noroeste 0 -- -- 45
2017-09-11 14:00:00 26.5 14 Noroeste 30 Noroeste 0 -- -- 45
2017-09-11 13:00:00 24.9 11 Noroeste 30 Oeste 0 -- -- 47
2017-09-11 12:00:00 24.1 18 Noroeste 32 Oeste 0 -- -- 48
2017-09-11 11:00:00 23.4 17 Oeste 32 Noroeste 0 -- -- 51
2017-09-11 10:00:00 20 3 Sudoeste 7 Sudoeste 0 -- -- 55
2017-09-11 09:00:00 15 0 Calma 6 Sudoeste 0 -- -- 73
2017-09-11 08:00:00 11.5 2 Oeste 6 Sudoeste 0 -- -- 86
2017-09-11 07:00:00 11.7 0 Calma 5 Noroeste 0 -- -- 83
2017-09-11 06:00:00 12.9 2 Sudoeste 5 Oeste 0 -- -- 78
2017-09-11 05:00:00 14.2 2 Oeste 5 Oeste 0 -- -- 72
2017-09-11 04:00:00 15.3 0 Calma 6 Noroeste 0 -- -- 66
2017-09-11 03:00:00 16.3 0 Calma 6 Sudoeste 0 -- -- 63
2017-09-11 02:00:00 16.1 4 Sur 18 Oeste 0 -- -- 59
2017-09-11 01:00:00 17.4 7 Oeste 15 Sudoeste 0 -- -- 54
2017-09-11 00:00:00 18.1 6 Sudoeste 22 Oeste 0 -- -- 53
2017-09-10 23:00:00 18.3 8 Oeste 22 Noroeste 0 -- -- 52
2017-09-10 22:00:00 18.9 12 Noroeste 28 Oeste 0 -- -- 49
2017-09-10 21:00:00 19.2 11 Oeste 27 Oeste 0 -- -- 46
2017-09-10 20:00:00 19.9 14 Noroeste 42 Oeste 0 -- -- 45
2017-09-10 19:00:00 20.8 24 Noroeste 52 Noroeste 0 -- -- 43
2017-09-10 18:00:00 21.4 26 Noroeste 53 Noroeste 0 -- -- 43
2017-09-10 17:00:00 21.4 30 Noroeste 58 Oeste 0 -- -- 45
2017-09-10 16:00:00 21 31 Noroeste 62 Noroeste 0 -- -- 45
2017-09-10 15:00:00 20.6 27 Noroeste 55 Oeste 0 -- -- 48
2017-09-10 14:00:00 19.9 31 Noroeste 59 Noroeste 0 -- -- 48
2017-09-10 13:00:00 19.3 28 Oeste 54 Oeste 0 -- -- 51
2017-09-10 12:00:00 18.3 28 Oeste 58 Oeste 0 -- -- 55
2017-09-10 11:00:00 17.1 31 Oeste 58 Oeste 0 -- -- 59
2017-09-10 10:00:00 15.7 24 Oeste 57 Oeste 0 -- -- 63
2017-09-10 09:00:00 14.2 21 Oeste 40 Oeste 0 -- -- 67
2017-09-10 08:00:00 12.8 18 Oeste 33 Oeste 0 -- -- 70
2017-09-10 07:00:00 12.6 18 Oeste 39 Oeste 0 -- -- 69
2017-09-10 06:00:00 12.6 19 Oeste 44 Oeste 0 -- -- 69
2017-09-10 05:00:00 13 20 Oeste 41 Oeste 0 -- -- 68
2017-09-10 04:00:00 12.8 14 Oeste 31 Oeste 0 -- -- 69
2017-09-10 03:00:00 13.5 18 Oeste 35 Sudoeste 0 -- -- 68
2017-09-10 02:00:00 13.7 18 Oeste 31 Oeste 0 -- -- 68
2017-09-10 01:00:00 13.8 17 Oeste 32 Oeste 0 -- -- 67
2017-09-10 00:00:00 14.3 8 Oeste 24 Oeste 0 -- -- 65
2017-09-09 23:00:00 15.8 15 Oeste 32 Oeste 0 -- -- 60
2017-09-09 22:00:00 17.2 19 Oeste 37 Noroeste 0 -- -- 58
2017-09-09 21:00:00 16.3 12 Oeste 21 Oeste 0 -- -- 70
2017-09-09 20:00:00 15.9 7 Sudoeste 24 Sudoeste 0 -- -- 74
2017-09-09 19:00:00 15.4 12 Oeste 40 Oeste 0 -- -- 71
2017-09-09 18:00:00 18.6 21 Oeste 40 Oeste 0 -- -- 53
2017-09-09 17:00:00 19.4 20 Oeste 41 Oeste 0 -- -- 55
2017-09-09 16:00:00 19.1 22 Noroeste 42 Oeste 0 -- -- 56
2017-09-09 15:00:00 17.6 22 Oeste 40 Oeste 0 -- -- 63
2017-09-09 14:00:00 17.7 19 Oeste 44 Oeste 0 -- -- 64
2017-09-09 13:00:00 18.1 22 Noroeste 39 Noroeste 0 -- -- 67
2017-09-09 12:00:00 18.8 19 Noroeste 37 Noroeste 0 -- -- 67
2017-09-09 11:00:00 18.2 11 Oeste 33 Oeste 0 -- -- 68
2017-09-09 10:00:00 18.1 15 Oeste 32 Oeste 0 -- -- 71
2017-09-09 09:00:00 16.5 14 Oeste 23 Oeste 0 -- -- 75
2017-09-09 08:00:00 14.1 2 Sur 6 Sudoeste 0 -- -- 81
2017-09-09 07:00:00 14.5 3 Sudoeste 14 Oeste 0 -- -- 84
2017-09-09 06:00:00 13 4 Oeste 8 Oeste 0 -- -- 92
2017-09-09 05:00:00 13.8 2 Oeste 6 Norte 0 -- -- 92
2017-09-09 04:00:00 15 0 Calma 6 Oeste 0 -- -- 91
2017-09-09 03:00:00 15.1 4 Oeste 7 Oeste 0 -- -- 87
2017-09-09 02:00:00 16.5 0 Calma 7 Oeste 0 -- -- 80
2017-09-09 01:00:00 18.3 0 Calma 8 Nordeste 0 -- -- 71
2017-09-09 00:00:00 19.9 4 Este 10 Norte 0 -- -- 71
2017-09-08 23:00:00 20.2 3 Norte 7 Norte 0 -- -- 70
2017-09-08 22:00:00 20.7 5 Sudoeste 8 Sudoeste 0 -- -- 49
2017-09-08 21:00:00 20.7 2 Sudoeste 8 Este 0 -- -- 41
2017-09-08 20:00:00 25.8 6 Este 17 Este 0 -- -- 31
2017-09-08 19:00:00 27 8 Este 14 Nordeste 0 -- -- 29
2017-09-08 18:00:00 27.1 10 Nordeste 17 Nordeste 0 -- -- 29
2017-09-08 17:00:00 26.8 9 Este 18 Este 0 -- -- 31
2017-09-08 16:00:00 26.4 7 Norte 16 Nordeste 0 -- -- 31
2017-09-08 15:00:00 25.4 3 Norte 16 Oeste 0 -- -- 36
2017-09-08 14:00:00 23.5 2 Oeste 13 Oeste 0 -- -- 41
2017-09-08 13:00:00 21.9 0 Calma 12 Noroeste 0 -- -- 47
2017-09-08 12:00:00 20.2 3 Noroeste 13 Noroeste 0 -- -- 54
2017-09-08 11:00:00 17.7 3 Oeste 10 Sudoeste 0 -- -- 65
2017-09-08 10:00:00 15 3 Sudoeste 9 Sudoeste 0 -- -- 77
2017-09-08 09:00:00 11.8 3 Sudoeste 7 Sudoeste 0 -- -- 88
2017-09-08 08:00:00 10.1 0 Calma 7 Oeste 0 -- -- 92
2017-09-08 07:00:00 11 0 Calma 5 Sudoeste 0 -- -- 88
2017-09-08 06:00:00 12.2 0 Calma 8 Norte 0 -- -- 82
2017-09-08 05:00:00 14.4 2 Norte 8 Noroeste 0 -- -- 75
2017-09-08 04:00:00 15.3 0 Calma 12 Sudeste 0 -- -- 70
2017-09-08 03:00:00 15.6 2 Sudeste 21 Noroeste 0 -- -- 68
2017-09-08 02:00:00 16.4 5 Oeste 23 Oeste 0 -- -- 66
2017-09-08 01:00:00 17.8 11 Oeste 29 Sudoeste 0 -- -- 62
2017-09-08 00:00:00 18.5 13 Oeste 34 Oeste 0 -- -- 57
2017-09-07 23:00:00 19.9 17 Oeste 29 Noroeste 0 -- -- 52
2017-09-07 22:00:00 20.6 13 Oeste 27 Oeste 0 -- -- 49
2017-09-07 21:00:00 21.2 9 Oeste 24 Oeste 0 -- -- 45
2017-09-07 20:00:00 22.6 12 Noroeste 25 Noroeste 0 -- -- 41
2017-09-07 19:00:00 23.9 15 Noroeste 28 Noroeste 0 -- -- 41
2017-09-07 18:00:00 24.6 14 Noroeste 28 Noroeste 0 -- -- 40
2017-09-07 17:00:00 25 14 Noroeste 28 Noroeste 0 -- -- 40
2017-09-07 16:00:00 24 13 Oeste 28 Oeste 0 -- -- 42
2017-09-07 15:00:00 22.9 13 Noroeste 31 Oeste 0 -- -- 44
2017-09-07 14:00:00 21.8 14 Oeste 28 Oeste 0 -- -- 48
2017-09-07 13:00:00 20.6 13 Oeste 30 Noroeste 0 -- -- 52
2017-09-07 12:00:00 19 13 Oeste 31 Oeste 0 -- -- 59
2017-09-07 11:00:00 17.7 16 Oeste 37 Oeste 0 -- -- 63
2017-09-07 10:00:00 16.5 14 Oeste 29 Oeste 0 -- -- 68
2017-09-07 09:00:00 14.7 10 Sudoeste 24 Sudoeste 0 -- -- 73
2017-09-07 08:00:00 12.1 5 Sudoeste 12 Oeste 0 -- -- 80
2017-09-07 07:00:00 12.2 3 Sudoeste 9 Sudoeste 0 -- -- 79
2017-09-07 06:00:00 13.8 2 Sudoeste 13 Sudoeste 0 -- -- 73
2017-09-07 05:00:00 14.4 7 Sudoeste 17 Sudoeste 0 -- -- 71
2017-09-07 04:00:00 15.4 12 Sudoeste 23 Sudoeste 0 -- -- 67
2017-09-07 03:00:00 15.8 9 Sudoeste 27 Oeste 0 -- -- 66
2017-09-07 02:00:00 16.4 10 Sudoeste 28 Oeste 0 -- -- 65
2017-09-07 01:00:00 17.1 12 Oeste 24 Oeste 0 -- -- 64
2017-09-07 00:00:00 18 15 Oeste 34 Oeste 0 -- -- 60
2017-09-06 23:00:00 19.4 14 Oeste 34 Oeste 0 -- -- 57
2017-09-06 22:00:00 20.5 11 Noroeste 31 Noroeste 0 -- -- 56
2017-09-06 21:00:00 22.1 18 Noroeste 35 Noroeste 0 -- -- 52
2017-09-06 20:00:00 24.5 21 Noroeste 32 Noroeste 0 -- -- 46
2017-09-06 19:00:00 26.7 17 Noroeste 31 Noroeste 0 -- -- 44
2017-09-06 18:00:00 27.6 13 Oeste 28 Noroeste 0 -- -- 45
2017-09-06 17:00:00 28.1 14 Oeste 38 Oeste 0 -- -- 45
2017-09-06 16:00:00 27.2 12 Oeste 26 Noroeste 0 -- -- 45
2017-09-06 15:00:00 27.1 10 Noroeste 28 Oeste 0 -- -- 47
2017-09-06 14:00:00 25.9 12 Oeste -- -- -- -- -- 51
2017-09-06 13:00:00 24.1 11 Oeste 25 Noroeste 0 -- -- 54
2017-09-06 12:00:00 22.8 15 Oeste 26 Oeste 0 -- -- 59
2017-09-06 11:00:00 21.5 13 Oeste 30 Sudoeste 0 -- -- 63
2017-09-06 10:00:00 20.4 13 Oeste 26 Oeste 0 -- -- 67
2017-09-06 09:00:00 18.8 10 Sudoeste 22 Sudoeste 0 -- -- 72
2017-09-06 08:00:00 16.5 0 Calma 9 Oeste 0 -- -- 81
2017-09-06 07:00:00 17.4 5 Sudoeste 13 Oeste 0 -- -- 76
2017-09-06 06:00:00 18.2 6 Sudoeste 11 Oeste 0 -- -- 73
2017-09-06 05:00:00 18.8 5 Oeste 14 Sudoeste 0 -- -- 71
2017-09-06 04:00:00 19.4 5 Sudoeste 19 Oeste 0 -- -- 69
2017-09-06 03:00:00 20.1 8 Oeste 19 Oeste 0 -- -- 72
2017-09-06 02:00:00 21.6 11 Oeste 22 Oeste 0 -- -- 69
2017-09-06 01:00:00 20.1 8 Oeste 12 Oeste 0 -- -- 76
2017-09-06 00:00:00 21.2 3 Oeste 6 Oeste 0 -- -- 71
2017-09-05 23:00:00 21.6 0 Calma 6 Sudoeste 0 -- -- 67
2017-09-05 22:00:00 23.7 0 Calma 5 Sudoeste 0 -- -- 58
2017-09-05 21:00:00 26 2 Norte 11 Noroeste 0 -- -- 47
2017-09-05 20:00:00 29.1 8 Noroeste 16 Noroeste 0 -- -- 40
2017-09-05 19:00:00 30.4 6 Norte 14 Oeste 0 -- -- 39
2017-09-05 18:00:00 30.9 5 Oeste 17 Norte 0 -- -- 39
2017-09-05 17:00:00 30.7 3 Norte 17 Noroeste 0 -- -- 39
2017-09-05 16:00:00 30.4 5 Norte 18 Norte 0 -- -- 42
2017-09-05 15:00:00 29.1 8 Nordeste 21 Nordeste 0 -- -- 43
2017-09-05 14:00:00 28.7 4 Oeste 18 Nordeste 0 -- -- 43
2017-09-05 13:00:00 27.4 0 Calma 13 Norte 0 -- -- 46
2017-09-05 12:00:00 25.5 4 Nordeste 9 Este 0 -- -- 51
2017-09-05 11:00:00 23.3 0 Calma 8 Oeste 0 -- -- 61
2017-09-05 10:00:00 20.1 2 Oeste 5 Sudoeste 0 -- -- 75
2017-09-05 09:00:00 17.6 0 Calma 7 Oeste 0 -- -- 88
2017-09-05 08:00:00 15.7 0 Calma 4 Oeste 0 -- -- 95
2017-09-05 07:00:00 15.7 4 Oeste 6 Oeste 0 -- -- 95
2017-09-05 06:00:00 16.3 0 Calma -- -- 0 -- -- 94
2017-09-05 05:00:00 17.4 0 Calma -- -- 0 -- -- 92
2017-09-05 04:00:00 17.6 0 Calma 3 Este 0 -- -- 90
2017-09-05 03:00:00 18.4 0 Calma 5 Norte 0 -- -- 88
2017-09-05 02:00:00 18.9 0 Calma 6 Sudoeste 0 -- -- 85
2017-09-05 01:00:00 20.6 0 Calma 6 Este 0 -- -- 78
2017-09-05 00:00:00 21.1 2 Este 8 Este 0 -- -- 74
2017-09-04 23:00:00 21.8 0 Calma 11 Sudeste 0 -- -- 71
2017-09-04 22:00:00 23 3 Sur 19 Sudeste 0 -- -- 64
2017-09-04 21:00:00 24.8 8 Sudeste 21 Sudeste 0 -- -- 56
2017-09-04 20:00:00 26.4 11 Este 18 Este 0 -- -- 49
2017-09-04 19:00:00 28 5 Sudoeste 11 Oeste 0 -- -- 42
2017-09-04 18:00:00 28.4 4 Sudoeste 15 Oeste 0 -- -- 43
2017-09-04 17:00:00 27.9 0 Calma 19 Oeste 0 -- -- 43
2017-09-04 16:00:00 27.4 5 Sudoeste 21 Oeste 0 -- -- 46
2017-09-04 15:00:00 25.7 9 Oeste 21 Oeste 0 -- -- 49
2017-09-04 14:00:00 25 9 Oeste 24 Oeste 0 -- -- 53
2017-09-04 13:00:00 23.3 10 Oeste 22 Oeste 0 -- -- 59
2017-09-04 12:00:00 21.9 10 Oeste 22 Noroeste 0 -- -- 67
2017-09-04 11:00:00 20.6 10 Oeste 18 Oeste 0 -- -- 75
2017-09-04 10:00:00 19.4 8 Oeste 15 Sudoeste 0 -- -- 74
2017-09-04 09:00:00 15.3 0 Calma 5 Sudeste 0 -- -- 87
2017-09-04 08:00:00 14 0 Calma 4 Sudeste 0 -- -- 91
2017-09-04 07:00:00 14.7 0 Calma 8 Oeste 0 -- -- 87
2017-09-04 06:00:00 15.7 2 Sudeste 5 Este 0 -- -- 83
2017-09-04 05:00:00 18.1 3 Norte 6 Este 0 -- -- 70
2017-09-04 04:00:00 17.1 0 Calma 9 Norte 0 -- -- 77
2017-09-04 03:00:00 16.8 0 Calma 6 Norte 0 -- -- 79
2017-09-04 02:00:00 17.8 4 Oeste 6 Noroeste 0 -- -- 76
2017-09-04 01:00:00 18.7 3 Sudoeste 7 Sur 0 -- -- 73
2017-09-04 00:00:00 18.9 0 Calma 11 Este 0.2 -- -- 75
2017-09-03 23:00:00 20.3 3 Noroeste 7 Sur 0 -- -- 59
2017-09-03 22:00:00 20.7 0 Calma 6 Oeste 0 -- -- 52
2017-09-03 21:00:00 22.4 3 Oeste 5 Norte 0 -- -- 42
2017-09-03 20:00:00 25.4 3 Noroeste 15 Noroeste 0 -- -- 33
2017-09-03 19:00:00 27.4 9 Noroeste 16 Noroeste 0 -- -- 31
2017-09-03 18:00:00 27.4 6 Norte 15 Norte 0 -- -- 31
2017-09-03 17:00:00 27.1 9 Noroeste 21 Noroeste 0 -- -- 32
2017-09-03 16:00:00 26.3 7 Noroeste 19 Norte 0 -- -- 33
2017-09-03 15:00:00 25.3 6 Norte 13 Noroeste 0 -- -- 35
2017-09-03 14:00:00 24.5 3 Sudoeste 10 Nordeste 0 -- -- 43
2017-09-03 13:00:00 22.1 4 Norte 15 Norte 0 -- -- 51
2017-09-03 12:00:00 20.4 6 Noroeste 12 Noroeste 0 -- -- 52
2017-09-03 11:00:00 18.3 2 Sudeste 9 Sudoeste 0 -- -- 59
2017-09-03 10:00:00 16.5 3 Sur 10 Sudoeste 0 -- -- 67
2017-09-03 09:00:00 13.8 2 Sur 11 Sur 0 -- -- 75
2017-09-03 08:00:00 12.4 2 Sur 7 Sudoeste 0 -- -- 80
2017-09-03 07:00:00 12 3 Sudoeste 6 Sudoeste 0 -- -- 80
2017-09-03 06:00:00 12.9 4 Sudoeste 10 Sur 0 -- -- 78
2017-09-03 05:00:00 13.4 5 Sur 8 Sur 0 -- -- 78
2017-09-03 04:00:00 13.6 3 Sudoeste 9 Sudoeste 0 -- -- 77
2017-09-03 03:00:00 14.2 5 Sudoeste 10 Sudoeste 0 -- -- 75
2017-09-03 02:00:00 14.6 6 Sudoeste 12 Sudoeste 0 -- -- 74
2017-09-03 01:00:00 14.6 5 Oeste 9 Sudoeste 0 -- -- 73
2017-09-03 00:00:00 16.2 6 Sudoeste 11 Sudoeste 0 -- -- 68
2017-09-02 23:00:00 16.8 4 Sudoeste 12 Oeste 0 -- -- 63
2017-09-02 22:00:00 17.9 5 Oeste 14 Noroeste 0 -- -- 57
2017-09-02 21:00:00 20.1 6 Noroeste 15 Oeste 0 -- -- 49
2017-09-02 20:00:00 22.4 10 Oeste 27 Oeste 0 -- -- 44
2017-09-02 19:00:00 23.5 13 Oeste 26 Oeste 0 -- -- 42
2017-09-02 18:00:00 23.9 13 Oeste 29 Oeste 0 -- -- 41
2017-09-02 17:00:00 24.2 18 Noroeste 32 Oeste 0 -- -- 43
2017-09-02 16:00:00 22.9 18 Oeste 37 Noroeste 0 -- -- 44
2017-09-02 15:00:00 22.3 19 Noroeste 38 Noroeste 0 -- -- 43
2017-09-02 14:00:00 21.3 20 Noroeste 38 Noroeste 0 -- -- 45
2017-09-02 13:00:00 20 19 Oeste 37 Oeste 0 -- -- 48
2017-09-02 12:00:00 19.3 18 Oeste 37 Oeste 0 -- -- 52
2017-09-02 11:00:00 18.2 19 Oeste 39 Oeste 0 -- -- 59
2017-09-02 10:00:00 16.5 19 Oeste 36 Oeste 0 -- -- 63
2017-09-02 09:00:00 15.4 17 Oeste 30 Oeste 0 -- -- 68
2017-09-02 08:00:00 14.2 9 Sudoeste 25 Sudoeste 0 -- -- 70
2017-09-02 07:00:00 14.2 11 Oeste 28 Oeste 0 -- -- 69
2017-09-02 06:00:00 14.6 17 Oeste 34 Oeste 0 -- -- 68
2017-09-02 05:00:00 14.9 18 Oeste 47 Oeste 0 -- -- 68
2017-09-02 04:00:00 15.1 24 Oeste 40 Oeste 0 -- -- 68
2017-09-02 03:00:00 15.3 18 Oeste 33 Oeste 0 -- -- 67
2017-09-02 02:00:00 15.8 17 Oeste 36 Sudoeste 0 -- -- 64
2017-09-02 01:00:00 16.3 18 Oeste 36 Oeste 0 -- -- 60
2017-09-02 00:00:00 17.2 17 Oeste 31 Oeste 0 -- -- 56
2017-09-01 23:00:00 17.8 13 Oeste 25 Oeste 0 -- -- 55
2017-09-01 22:00:00 19 13 Oeste 26 Oeste 0 -- -- 48
2017-09-01 21:00:00 20.4 15 Noroeste 28 Noroeste 0 -- -- 44
2017-09-01 20:00:00 22 14 Noroeste 31 Oeste 0 -- -- 40
2017-09-01 19:00:00 23.1 15 Oeste 38 Sudoeste 0 -- -- 40
2017-09-01 18:00:00 23.5 15 Noroeste 32 Oeste 0 -- -- 42
2017-09-01 17:00:00 23.5 17 Oeste 31 Oeste 0 -- -- 41
2017-09-01 16:00:00 23.2 15 Oeste 35 Noroeste 0 -- -- 41
2017-09-01 15:00:00 22.7 16 Noroeste 33 Oeste 0 -- -- 41
2017-09-01 14:00:00 23 14 Oeste 27 Oeste 0 -- -- 40
2017-09-01 13:00:00 21.3 13 Oeste 26 Oeste 0 -- -- 46
2017-09-01 12:00:00 19.6 15 Noroeste 31 Noroeste 0 -- -- 53
2017-09-01 11:00:00 18.4 15 Oeste 31 Oeste 0 -- -- 59
2017-09-01 10:00:00 17.1 15 Oeste 31 Oeste 0 -- -- 62
2017-09-01 09:00:00 16.5 14 Oeste 25 Oeste 0 -- -- 64
2017-09-01 08:00:00 16.2 10 Oeste 22 Oeste 0 -- -- 64
2017-09-01 07:00:00 16.2 8 Oeste 29 Oeste 0 -- -- 64
2017-09-01 06:00:00 16.6 10 Oeste 23 Oeste 0 -- -- 64
2017-09-01 05:00:00 16 5 Oeste 10 Oeste 0 -- -- 70
2017-09-01 04:00:00 15.2 0 Calma 7 Sudoeste 0 -- -- 76
2017-09-01 03:00:00 16.1 3 Sur 13 Oeste 0 -- -- 70
2017-09-01 02:00:00 17.5 7 Sudoeste 15 Oeste 0 -- -- 62
2017-09-01 01:00:00 18.8 9 Oeste 20 Noroeste 0 -- -- 59
2017-09-01 00:00:00 18.9 6 Oeste 21 Oeste 0 -- -- 60
2017-08-31 23:00:00 19.6 7 Noroeste 16 Oeste 0 -- -- 58
2017-08-31 22:00:00 20.9 6 Oeste 12 Oeste 0 -- -- 55
2017-08-31 21:00:00 21.6 7 Noroeste 17 Noroeste 0 -- -- 51
2017-08-31 20:00:00 23.3 8 Oeste 20 Oeste 0 -- -- 48
2017-08-31 19:00:00 24.2 8 Oeste 18 Noroeste 0 -- -- 47
2017-08-31 18:00:00 24.5 12 Noroeste 27 Oeste 0 -- -- 46
2017-08-31 17:00:00 23.8 9 Oeste 22 Noroeste 0 -- -- 47
2017-08-31 16:00:00 23.1 9 Noroeste 21 Noroeste 0 -- -- 49
2017-08-31 15:00:00 22.5 8 Noroeste 22 Oeste 0 -- -- 52
2017-08-31 14:00:00 21.8 11 Noroeste 29 Noroeste 0 -- -- 55
2017-08-31 13:00:00 21.1 12 Noroeste 28 Oeste 0 -- -- 60
2017-08-31 12:00:00 19.8 11 Noroeste 26 Oeste 0 -- -- 65
2017-08-31 11:00:00 18.3 12 Oeste 28 Oeste 0 -- -- 71
2017-08-31 10:00:00 17.1 13 Oeste 25 Sudoeste 0 -- -- 77
2017-08-31 09:00:00 16.4 9 Oeste 17 Oeste 0 -- -- 83
2017-08-31 08:00:00 16.4 10 Oeste 18 Sudoeste 0 -- -- 84
2017-08-31 07:00:00 16.8 8 Oeste 21 Oeste 0 -- -- 85
2017-08-31 06:00:00 17.2 10 Oeste 27 Oeste 0 -- -- 84
2017-08-31 05:00:00 17.8 8 Oeste 16 Oeste 0 -- -- 84
2017-08-31 04:00:00 17.8 5 Oeste 19 Oeste 0 -- -- 89
2017-08-31 03:00:00 18.6 5 Oeste 21 Oeste 0 -- -- 84
2017-08-31 02:00:00 19.2 4 Oeste 10 Noroeste 0 -- -- 93
2017-08-31 01:00:00 19.2 0 Calma 13 Noroeste 0 -- -- 93
2017-08-31 00:00:00 18.9 0 Calma 8 Sudoeste 0 -- -- 94
2017-08-30 23:00:00 18.9 5 Sudoeste 12 Sudoeste 0 -- -- 93
2017-08-30 22:00:00 19.3 7 Oeste 11 Oeste 0 -- -- 94
2017-08-30 21:00:00 19.6 4 Sur 8 Sur 0 -- -- 93
2017-08-30 20:00:00 20.1 3 Norte 16 Este 0.1 -- -- 91
2017-08-30 19:00:00 20.3 9 Este 18 Este 0.8 -- -- 89
2017-08-30 18:00:00 22.8 0 Calma 15 Este 0.3 -- -- 77
2017-08-30 17:00:00 26.1 8 Nordeste 17 Norte 0 -- -- 48
2017-08-30 16:00:00 26.5 6 Norte 15 Noroeste 0 -- -- 47
2017-08-30 15:00:00 26.9 3 Noroeste 18 Nordeste 0 -- -- 47
2017-08-30 14:00:00 26.1 0 Calma 17 Oeste 0 -- -- 50
2017-08-30 13:00:00 25.2 7 Oeste 14 Oeste 0 -- -- 52
2017-08-30 12:00:00 24.6 5 Sudoeste 17 Oeste 0 -- -- 55
2017-08-30 11:00:00 23.6 5 Sudoeste 13 Sur 0 -- -- 56
2017-08-30 10:00:00 21.8 9 Sur 15 Sudoeste 0 -- -- 64
2017-08-30 09:00:00 20.6 10 Sur 23 Sur 0 -- -- 66
2017-08-30 08:00:00 20.1 6 Sudeste 19 Sudeste 0 -- -- 65
2017-08-30 07:00:00 19.5 6 Sur 11 Sudoeste 0 -- -- 68
2017-08-30 06:00:00 19.2 4 Sudeste 19 Sudoeste 0 -- -- 69
2017-08-30 05:00:00 18.9 3 Sur 31 Nordeste 0 -- -- 71
2017-08-30 04:00:00 20.3 12 Este 30 Este 0.4 -- -- 65
2017-08-30 03:00:00 21.4 9 Sur 27 Sur 0 -- -- 62
2017-08-30 02:00:00 20 7 Este 13 Este 0 -- -- 67
2017-08-30 01:00:00 20.2 3 Nordeste 15 Sudoeste 0 -- -- 64
2017-08-30 00:00:00 21.6 7 Sudoeste 13 Sudoeste 0 -- -- 55
2017-08-29 23:00:00 21.9 6 Sudoeste 32 Sur 0 -- -- 51
2017-08-29 22:00:00 22.9 10 Sudeste 28 Sur 0 -- -- 48
2017-08-29 21:00:00 22.2 10 Sudeste 26 Sur 0 -- -- 53
2017-08-29 20:00:00 21.2 3 Este 38 Sur 0.1 -- -- 58
2017-08-29 19:00:00 22.4 10 Sur 53 Sudoeste 0 -- -- 51
2017-08-29 18:00:00 23.9 6 Sur 39 Sur 0 -- -- 51
2017-08-29 17:00:00 24.2 12 Sur 36 Sudeste 0 -- -- 53
2017-08-29 16:00:00 23.6 11 Este 19 Nordeste 0 -- -- 67
2017-08-29 15:00:00 22.8 9 Nordeste 15 Nordeste 0 -- -- 71
2017-08-29 14:00:00 22.3 7 Nordeste 13 Este 0 -- -- 69
2017-08-29 13:00:00 21.8 8 Nordeste 17 Nordeste 0 -- -- 70
2017-08-29 12:00:00 21.6 9 Nordeste 13 Este 0 -- -- 75
2017-08-29 11:00:00 20.8 4 Norte 10 Este 0 -- -- 75
2017-08-29 10:00:00 19.4 5 Este 8 Este 0 -- -- 86
2017-08-29 09:00:00 17.7 0 Calma 5 Este 0 -- -- 94
2017-08-29 08:00:00 17.2 2 Norte 6 Norte 0 -- -- 97
2017-08-29 07:00:00 16.7 4 Norte 9 Norte 0 -- -- 97
2017-08-29 06:00:00 16.4 0 Calma 6 Sur 0 -- -- 97
2017-08-29 05:00:00 16.5 0 Calma 5 Oeste 0 -- -- 96
2017-08-29 04:00:00 17 0 Calma 6 Oeste 0 -- -- 96
2017-08-29 03:00:00 17.3 4 Oeste 7 Sur 0 -- -- 95
2017-08-29 02:00:00 18.2 2 Sudoeste 7 Sudoeste 0 -- -- 93
2017-08-29 01:00:00 18.9 3 Oeste 19 Oeste 0 -- -- 88
2017-08-29 00:00:00 19.6 11 Oeste 35 Noroeste 0 -- -- 88
2017-08-28 23:00:00 20.1 18 Noroeste 35 Noroeste 2 -- -- 95
2017-08-28 22:00:00 22.6 5 Oeste 12 Oeste 0 -- -- 78
2017-08-28 21:00:00 23.1 6 Oeste 10 Noroeste 0 -- -- 74
2017-08-28 20:00:00 23.8 0 Calma 6 Sur 0 -- -- 71
2017-08-28 19:00:00 24.3 0 Calma 28 Oeste 0 -- -- 67
2017-08-28 18:00:00 24.5 13 Noroeste 30 Noroeste 0 -- -- 66
2017-08-28 17:00:00 26.5 8 Oeste 21 Oeste 3 -- -- 74
2017-08-28 16:00:00 28 4 Sudoeste 15 Nordeste 0 -- -- 58
2017-08-28 15:00:00 28.8 4 Nordeste 14 Nordeste 0 -- -- 53
2017-08-28 14:00:00 27.3 9 Este 15 Este 0 -- -- 61
2017-08-28 13:00:00 25.8 5 Noroeste 17 Noroeste 0 -- -- 66
2017-08-28 12:00:00 24.5 4 Nordeste 14 Este 0 -- -- 65
2017-08-28 11:00:00 23.1 9 Este 13 Nordeste 0 -- -- 73
2017-08-28 10:00:00 20.1 0 Calma 4 Sudeste 0 -- -- 90
2017-08-28 09:00:00 17.8 0 Calma 3 Sur 0 -- -- 97
2017-08-28 08:00:00 17.3 0 Calma 7 Norte 0 -- -- 98
2017-08-28 07:00:00 17 0 Calma 8 Este 0 -- -- 98
2017-08-28 06:00:00 16.9 0 Calma 7 Este 0 -- -- 98
2017-08-28 05:00:00 17 0 Calma 7 Sudoeste 0 -- -- 97
2017-08-28 04:00:00 17.2 5 Oeste 10 Oeste 0 -- -- 98
2017-08-28 03:00:00 17.6 0 Calma 6 Sur 0 -- -- 98
2017-08-28 02:00:00 17.9 0 Calma 3 Norte 0 -- -- 97
2017-08-28 01:00:00 18.8 2 Norte 9 Norte 0 -- -- 94
2017-08-28 00:00:00 19.7 5 Norte 11 Norte 0 -- -- 90
2017-08-27 23:00:00 20.5 7 Este 12 Este 0 -- -- 91
2017-08-27 22:00:00 20.2 0 Calma 8 Sur 0 -- -- 94
2017-08-27 21:00:00 20.9 0 Calma 14 Oeste 0 -- -- 92
2017-08-27 20:00:00 21.3 7 Oeste 14 Oeste 0 -- -- 86
2017-08-27 19:00:00 21.1 4 Noroeste 25 Nordeste 1 -- -- 93
2017-08-27 18:00:00 22.6 9 Norte 45 Oeste 8.1 -- -- 85
2017-08-27 17:00:00 23 18 Oeste 55 Oeste 0 -- -- 73
2017-08-27 16:00:00 30.6 5 Norte 15 Norte 0 -- -- 47
2017-08-27 15:00:00 31.5 9 Norte 19 Norte 0 -- -- 43
2017-08-27 14:00:00 30.3 6 Nordeste 15 Este 0 -- -- 48
2017-08-27 13:00:00 28.9 6 Nordeste 12 Nordeste 0 -- -- 56
2017-08-27 12:00:00 26.8 0 Calma 8 Oeste 0 -- -- 63
2017-08-27 11:00:00 24.6 0 Calma 10 Oeste 0 -- -- 72
2017-08-27 10:00:00 22.9 4 Oeste 10 Oeste 0 -- -- 77
2017-08-27 09:00:00 20.6 0 Calma 5 Sudoeste 0 -- -- 89
2017-08-27 08:00:00 19.2 0 Calma 8 Sudoeste 0 -- -- 94
2017-08-27 07:00:00 18.9 5 Oeste 8 Sudoeste 0 -- -- 95
2017-08-27 06:00:00 19.3 0 Calma 12 Sudoeste 0 -- -- 94
2017-08-27 05:00:00 20.2 3 Sur 9 Sudeste 0 -- -- 91
2017-08-27 04:00:00 20.7 0 Calma 9 Sudoeste 0 -- -- 90
2017-08-27 03:00:00 21.5 0 Calma 10 Norte 0 -- -- 79
2017-08-27 02:00:00 22.3 4 Noroeste 15 Sudoeste 0 -- -- 75
2017-08-27 01:00:00 21.9 12 Oeste 32 Sur 0.1 -- -- 77
2017-08-27 00:00:00 22.2 3 Sudeste 11 Sudeste 0 -- -- 73
2017-08-26 23:00:00 21.5 5 Sudeste 24 Sudoeste 0 -- -- 81
2017-08-26 22:00:00 21.1 5 Sudoeste 31 Este 0 -- -- 84
2017-08-26 21:00:00 20.2 22 Este 42 Este 0.7 -- -- 91
2017-08-26 20:00:00 20.5 9 Sur 40 Oeste 4.8 -- -- 88
2017-08-26 19:00:00 19.6 31 Oeste 63 Oeste 8.7 -- -- 90
2017-08-26 18:00:00 29.2 14 Nordeste 30 Nordeste 0.3 -- -- 58
2017-08-26 17:00:00 32.8 16 Nordeste 33 Nordeste 0 -- -- 44
2017-08-26 16:00:00 33.4 15 Nordeste 30 Este 0 -- -- 42
2017-08-26 15:00:00 33 14 Nordeste 25 Nordeste 0 -- -- 42
2017-08-26 14:00:00 31.1 9 Nordeste 19 Este 0 -- -- 49
2017-08-26 13:00:00 28.8 5 Este 10 Nordeste 0 -- -- 61
2017-08-26 12:00:00 25.1 4 Sur 9 Sudoeste 0 -- -- 75
2017-08-26 11:00:00 23.6 6 Sudoeste 10 Oeste 0 -- -- 78
2017-08-26 10:00:00 23.1 0 Calma 4 Sur 0 -- -- 76
2017-08-26 09:00:00 20.5 0 Calma 5 Este 0 -- -- 86
2017-08-26 08:00:00 18 0 Calma 4 Sudoeste 0 -- -- 95
2017-08-26 07:00:00 18.6 0 Calma 6 Sudoeste 0 -- -- 92
2017-08-26 06:00:00 19.7 2 Este 8 Este 0 -- -- 91
2017-08-26 05:00:00 21.3 5 Este 14 Nordeste 0 -- -- 89
2017-08-26 04:00:00 22.1 8 Este 15 Este 0 -- -- 85
2017-08-26 03:00:00 23.2 3 Nordeste 9 Norte 0 -- -- 54
2017-08-26 02:00:00 24.4 3 Sur 15 Sudoeste 0 -- -- 53
2017-08-26 01:00:00 25 3 Sudoeste 17 Sudoeste 0 -- -- 49
2017-08-26 00:00:00 28.4 10 Sur 28 Sur 0 -- -- 41